Time;durP1;ratioP1;P1;durP2;ratioP2;P2;SDS_P1;SDS_P2;PMS_P1;PMS_P2;Temp;Humidity;BMP_temperature;BMP_pressure;BME280_temperature;BME280_humidity;BME280_pressure;Samples;Min_cycle;Max_cycle;Signal;HPM_P1;HPM_P2
2024/03/22 00:01:03;;;;;;;;;;;;;;;;;;4972904;28;20026;-78
2024/03/22 00:03:30;;;;;;;;;;;;;;;;;;4971768;28;19933;-77
2024/03/22 00:05:57;;;;;;;;;;;;;;;;;;4969491;28;20450;-78
2024/03/22 00:08:23;;;;;;;;;;;;;;;;;;4968989;28;19930;-77
2024/03/22 00:10:50;;;;;;;;;;;;;;;;;;4969432;28;19930;-77
2024/03/22 00:13:16;;;;;;;;;;;;;;;;;;4964305;28;19966;-77
2024/03/22 00:15:44;;;;;;;;;;;;;;;;;;5011475;28;20453;-77
2024/03/22 00:18:10;;;;;;;;;;;;;;;;;;4990968;28;19994;-76
2024/03/22 00:20:37;;;;;;;;;;;;;;;;;;4967918;28;19965;-76
2024/03/22 00:23:03;;;;;;;;;;;;;;;;;;4964783;28;20366;-77
2024/03/22 00:25:30;;;;;;;;;;;;;;;;;;4968539;28;20393;-77
2024/03/22 00:27:56;;;;;;;;;;;;;;;;;;4969078;28;19930;-78
2024/03/22 00:30:23;;;;;;;;;;;;;;;;;;4968435;28;19930;-77
2024/03/22 00:32:49;;;;;;;;;;;;;;;;;;4968490;28;20051;-79
2024/03/22 00:35:16;;;;;;;;;;;;;;;;;;4967762;28;20373;-78
2024/03/22 00:37:42;;;;;;;;;;;;;;;;;;4964971;28;19970;-78
2024/03/22 00:40:09;;;;;;;;;;;;;;;;;;4966998;28;19937;-78
2024/03/22 00:42:35;;;;;;;;;;;;;;;;;;4968500;28;19938;-77
2024/03/22 00:45:02;;;;;;;;;;;;;;;;;;4968221;28;19930;-75
2024/03/22 00:47:28;;;;;;;;;;;;;;;;;;4967139;28;19976;-76
2024/03/22 00:49:55;;;;;;;;;;;;;;;;;;4966087;28;19930;-76
2024/03/22 00:52:23;;;;;;;;;;;;;;;;;;4966858;28;20385;-76
2024/03/22 00:54:50;;;;;;;;;;;;;;;;;;4967876;28;19930;-77
2024/03/22 00:57:17;;;;;;;;;;;;;;;;;;4967813;28;20375;-77
2024/03/22 00:59:44;;;;;;;;;;;;;;;;;;4968248;28;19950;-75
2024/03/22 01:02:10;;;;;;;;;;;;;;;;;;4968009;28;19962;-77
2024/03/22 01:04:37;;;;;;;;;;;;;;;;;;4966672;28;19930;-76
2024/03/22 01:07:03;;;;;;;;;;;;;;;;;;4967956;28;19965;-75
2024/03/22 01:09:30;;;;;;;;;;;;;;;;;;4968097;28;19934;-77
2024/03/22 01:11:56;;;;;;;;;;;;;;;;;;4964269;28;20381;-77
2024/03/22 01:14:23;;;;;;;;;;;;;;;;;;4967832;28;20024;-77
2024/03/22 01:16:49;;;;;;;;;;;;;;;;;;4959111;28;19949;-77
2024/03/22 01:19:16;;;;;;;;;;;;;;;;;;4967804;28;19934;-77
2024/03/22 01:21:42;;;;;;;;;;;;;;;;;;4961679;28;20412;-77
2024/03/22 01:24:09;;;;;;;;;;;;;;;;;;4968059;28;20393;-76
2024/03/22 01:26:35;;;;;;;;;;;;;;;;;;4961565;28;19938;-76
2024/03/22 01:29:02;;;;;;;;;;;;;;;;;;4967722;28;19930;-78
2024/03/22 01:31:28;;;;;;;;;;;;;;;;;;4967142;28;19930;-78
2024/03/22 01:33:55;;;;;;;;;;;;;;;;;;4967707;28;19930;-78
2024/03/22 01:36:21;;;;;;;;;;;;;;;;;;4967446;28;20438;-78
2024/03/22 01:38:48;;;;;;;;;;;;;;;;;;4965755;28;19970;-78
2024/03/22 01:41:14;;;;;;;;;;;;;;;;;;4967498;28;19992;-77
2024/03/22 01:43:41;;;;;;;;;;;;;;;;;;4967599;28;19995;-77
2024/03/22 01:46:07;;;;;;;;;;;;;;;;;;4967497;28;19987;-77
2024/03/22 01:48:34;;;;;;;;;;;;;;;;;;4967554;28;19934;-74
2024/03/22 01:51:00;;;;;;;;;;;;;;;;;;4966963;28;20397;-75
2024/03/22 01:53:28;;;;;;;;;;;;;;;;;;4968079;28;19930;-75
2024/03/22 01:55:54;;;;;;;;;;;;;;;;;;4964360;28;19992;-75
2024/03/22 01:58:21;;;;;;;;;;;;;;;;;;4967663;28;19930;-74
2024/03/22 02:00:47;;;;;;;;;;;;;;;;;;4973251;28;19930;-74
2024/03/22 02:03:14;;;;;;;;;;;;;;;;;;4975896;28;19934;-75
2024/03/22 02:05:40;;;;;;;;;;;;;;;;;;4972976;28;20031;-76
2024/03/22 02:08:07;;;;;;;;;;;;;;;;;;4970918;28;19934;-76
2024/03/22 02:10:33;;;;;;;;;;;;;;;;;;4986683;28;19976;-76
2024/03/22 02:13:01;;;;;;;;;;;;;;;;;;4966841;28;19930;-76
2024/03/22 02:15:27;;;;;;;;;;;;;;;;;;4967381;28;20025;-76
2024/03/22 02:17:54;;;;;;;;;;;;;;;;;;4967105;28;20335;-74
2024/03/22 02:20:20;;;;;;;;;;;;;;;;;;4966708;28;19992;-74
2024/03/22 02:22:47;;;;;;;;;;;;;;;;;;4966803;28;19930;-74
2024/03/22 02:25:13;;;;;;;;;;;;;;;;;;4967264;28;19930;-75
2024/03/22 02:27:40;;;;;;;;;;;;;;;;;;4966273;28;19957;-75
2024/03/22 02:30:06;;;;;;;;;;;;;;;;;;4965632;28;20432;-75
2024/03/22 02:32:33;;;;;;;;;;;;;;;;;;4966354;28;20401;-75
2024/03/22 02:34:59;;;;;;;;;;;;;;;;;;4958316;28;19931;-75
2024/03/22 02:37:28;;;;;;;;;;;;;;;;;;4966669;28;19937;-75
2024/03/22 02:39:54;;;;;;;;;;;;;;;;;;4965577;28;19930;-75
2024/03/22 02:42:21;;;;;;;;;;;;;;;;;;4966613;28;19934;-75
2024/03/22 02:44:47;;;;;;;;;;;;;;;;;;4969692;28;19930;-76
2024/03/22 02:47:15;;;;;;;;;;;;;;;;;;4957962;28;20336;-76
2024/03/22 02:49:41;;;;;;;;;;;;;;;;;;4970383;28;19930;-76
2024/03/22 02:52:08;;;;;;;;;;;;;;;;;;4969447;28;19941;-77
2024/03/22 02:54:34;;;;;;;;;;;;;;;;;;4969204;28;19934;-77
2024/03/22 02:57:02;;;;;;;;;;;;;;;;;;4967235;28;19936;-76
2024/03/22 02:59:28;;;;;;;;;;;;;;;;;;4969374;28;20374;-76
2024/03/22 03:01:55;;;;;;;;;;;;;;;;;;4969343;28;20016;-77
2024/03/22 03:04:21;;;;;;;;;;;;;;;;;;4962969;28;19977;-77
2024/03/22 03:06:48;;;;;;;;;;;;;;;;;;4969659;28;19930;-76
2024/03/22 03:09:14;;;;;;;;;;;;;;;;;;4969195;28;20401;-77
2024/03/22 03:11:41;;;;;;;;;;;;;;;;;;4969915;28;19953;-76
2024/03/22 03:14:07;;;;;;;;;;;;;;;;;;4969177;28;19973;-77
2024/03/22 03:16:34;;;;;;;;;;;;;;;;;;4971590;28;20393;-76
2024/03/22 03:19:01;;;;;;;;;;;;;;;;;;4968812;28;19984;-75
2024/03/22 03:21:27;;;;;;;;;;;;;;;;;;4968880;28;19934;-76
2024/03/22 03:23:54;;;;;;;;;;;;;;;;;;4968916;28;19929;-76
2024/03/22 03:26:20;;;;;;;;;;;;;;;;;;4969276;28;20030;-75
2024/03/22 03:28:47;;;;;;;;;;;;;;;;;;4969604;28;19930;-75
2024/03/22 03:31:13;;;;;;;;;;;;;;;;;;4969728;28;20486;-76
2024/03/22 03:33:40;;;;;;;;;;;;;;;;;;4969312;28;20377;-76
2024/03/22 03:36:06;;;;;;;;;;;;;;;;;;4969116;28;19969;-75
2024/03/22 03:38:33;;;;;;;;;;;;;;;;;;4968081;28;19953;-75
2024/03/22 03:40:59;;;;;;;;;;;;;;;;;;4968698;28;19930;-75
2024/03/22 03:43:26;;;;;;;;;;;;;;;;;;4968662;28;19937;-75
2024/03/22 03:45:54;;;;;;;;;;;;;;;;;;4968722;28;19976;-76
2024/03/22 03:48:21;;;;;;;;;;;;;;;;;;4962058;28;20304;-76
2024/03/22 03:50:47;;;;;;;;;;;;;;;;;;4968155;28;19930;-75
2024/03/22 03:53:14;;;;;;;;;;;;;;;;;;4969816;28;19934;-75
2024/03/22 03:55:40;;;;;;;;;;;;;;;;;;4968177;28;19937;-75
2024/03/22 03:58:07;;;;;;;;;;;;;;;;;;4968644;28;19930;-75
2024/03/22 04:00:33;;;;;;;;;;;;;;;;;;4968654;28;19934;-76
2024/03/22 04:03:00;;;;;;;;;;;;;;;;;;4969395;28;20339;-75
2024/03/22 04:05:26;;;;;;;;;;;;;;;;;;4968600;28;20450;-74
2024/03/22 04:07:53;;;;;;;;;;;;;;;;;;4969788;28;19933;-75
2024/03/22 04:10:19;;;;;;;;;;;;;;;;;;4972508;28;20007;-75
2024/03/22 04:12:46;;;;;;;;;;;;;;;;;;4969169;28;19930;-75
2024/03/22 04:15:12;;;;;;;;;;;;;;;;;;4969589;28;20583;-75
2024/03/22 04:17:40;;;;;;;;;;;;;;;;;;4968649;28;19938;-77
2024/03/22 04:20:06;;;;;;;;;;;;;;;;;;4968673;28;19964;-76
2024/03/22 04:22:33;;;;;;;;;;;;;;;;;;4968872;28;19984;-78
2024/03/22 04:24:59;;;;;;;;;;;;;;;;;;4970815;28;19930;-75
2024/03/22 04:27:26;;;;;;;;;;;;;;;;;;4973303;28;20424;-76
2024/03/22 04:29:52;;;;;;;;;;;;;;;;;;4968990;28;19969;-75
2024/03/22 04:32:19;;;;;;;;;;;;;;;;;;4969434;28;19954;-75
2024/03/22 04:34:45;;;;;;;;;;;;;;;;;;4967267;28;19934;-75
2024/03/22 04:37:12;;;;;;;;;;;;;;;;;;4967318;28;19930;-75
2024/03/22 04:39:39;;;;;;;;;;;;;;;;;;4968372;28;20029;-75
2024/03/22 04:42:06;;;;;;;;;;;;;;;;;;4968253;28;19954;-75
2024/03/22 04:44:32;;;;;;;;;;;;;;;;;;4967854;28;19930;-76
2024/03/22 04:47:00;;;;;;;;;;;;;;;;;;4967445;28;20273;-77
2024/03/22 04:49:26;;;;;;;;;;;;;;;;;;4967527;28;19936;-77
2024/03/22 04:51:53;;;;;;;;;;;;;;;;;;4967901;28;19930;-77
2024/03/22 04:54:19;;;;;;;;;;;;;;;;;;4968690;28;20371;-78
2024/03/22 04:56:46;;;;;;;;;;;;;;;;;;4965648;28;19992;-78
2024/03/22 04:59:12;;;;;;;;;;;;;;;;;;4968287;28;19936;-77
2024/03/22 05:01:39;;;;;;;;;;;;;;;;;;4966027;28;20042;-77
2024/03/22 05:04:05;;;;;;;;;;;;;;;;;;4967728;28;19961;-77
2024/03/22 05:06:32;;;;;;;;;;;;;;;;;;4967702;28;19934;-77
2024/03/22 05:08:58;;;;;;;;;;;;;;;;;;4968128;28;20447;-78
2024/03/22 05:11:25;;;;;;;;;;;;;;;;;;4967562;28;20389;-77
2024/03/22 05:13:51;;;;;;;;;;;;;;;;;;4968166;28;19934;-77
2024/03/22 05:16:18;;;;;;;;;;;;;;;;;;4967871;28;20012;-74
2024/03/22 05:18:44;;;;;;;;;;;;;;;;;;4967166;28;20365;-76
2024/03/22 05:21:11;;;;;;;;;;;;;;;;;;4966831;28;19934;-75
2024/03/22 05:23:37;;;;;;;;;;;;;;;;;;4968110;28;19960;-75
2024/03/22 05:26:04;;;;;;;;;;;;;;;;;;4967470;28;19941;-75
2024/03/22 05:28:30;;;;;;;;;;;;;;;;;;4967832;28;19932;-74
2024/03/22 05:30:57;;;;;;;;;;;;;;;;;;4967482;28;19930;-78
2024/03/22 05:33:24;;;;;;;;;;;;;;;;;;4964209;28;19930;-75
2024/03/22 05:35:51;;;;;;;;;;;;;;;;;;4965107;28;19934;-75
2024/03/22 05:38:17;;;;;;;;;;;;;;;;;;4967751;28;20430;-76
2024/03/22 05:40:46;;;;;;;;;;;;;;;;;;4967107;28;19937;-76
2024/03/22 05:43:12;;;;;;;;;;;;;;;;;;4967362;28;19930;-79
2024/03/22 05:45:39;;;;;;;;;;;;;;;;;;4962535;28;19930;-77
2024/03/22 05:48:05;;;;;;;;;;;;;;;;;;4967904;28;20545;-77
2024/03/22 05:50:32;;;;;;;;;;;;;;;;;;4967995;28;19926;-77
2024/03/22 05:52:58;;;;;;;;;;;;;;;;;;4966738;28;20004;-77
2024/03/22 05:55:27;;;;;;;;;;;;;;;;;;4966553;28;20388;-77
2024/03/22 05:57:53;;;;;;;;;;;;;;;;;;4966784;28;20026;-77
2024/03/22 06:00:20;;;;;;;;;;;;;;;;;;4967166;28;19956;-78
2024/03/22 06:02:46;;;;;;;;;;;;;;;;;;4967845;28;19930;-77
2024/03/22 06:05:13;;;;;;;;;;;;;;;;;;4966692;28;20351;-77
2024/03/22 06:07:41;;;;;;;;;;;;;;;;;;4965809;28;20397;-76
2024/03/22 06:10:09;;;;;;;;;;;;;;;;;;4962699;28;20478;-76
2024/03/22 06:12:35;;;;;;;;;;;;;;;;;;4969539;28;20009;-76
2024/03/22 06:15:05;;;;;;;;;;;;;;;;;;4969846;28;19930;-77
2024/03/22 06:17:32;;;;;;;;;;;;;;;;;;4970141;28;19995;-77
2024/03/22 06:19:59;;;;;;;;;;;;;;;;;;4972695;28;19937;-77
2024/03/22 06:22:25;;;;;;;;;;;;;;;;;;4970353;28;20447;-82
2024/03/22 06:24:52;;;;;;;;;;;;;;;;;;4971467;28;19931;-77
2024/03/22 06:27:19;;;;;;;;;;;;;;;;;;4964607;28;19934;-76
2024/03/22 06:29:46;;;;;;;;;;;;;;;;;;4970695;28;19930;-79
2024/03/22 06:32:12;;;;;;;;;;;;;;;;;;4970885;28;20341;-79
2024/03/22 06:34:39;;;;;;;;;;;;;;;;;;4966972;28;20301;-78
2024/03/22 06:37:05;;;;;;;;;;;;;;;;;;4971390;28;20406;-80
2024/03/22 06:39:33;;;;;;;;;;;;;;;;;;4970801;28;19936;-79
2024/03/22 06:41:59;;;;;;;;;;;;;;;;;;4968923;28;19995;-79
2024/03/22 06:44:26;;;;;;;;;;;;;;;;;;4971924;28;19934;-73
2024/03/22 06:46:53;;;;;;;;;;;;;;;;;;4960632;28;20356;-72
2024/03/22 06:49:20;;;;;;;;;;;;;;;;;;4967569;28;20028;-76
2024/03/22 06:51:47;;;;;;;;;;;;;;;;;;5002543;28;20033;-81
2024/03/22 06:54:14;;;;;;;;;;;;;;;;;;4971149;28;20591;-78
2024/03/22 06:56:40;;;;;;;;;;;;;;;;;;4962662;28;19934;-77
2024/03/22 06:59:08;;;;;;;;;;;;;;;;;;4968786;28;19930;-76
2024/03/22 07:01:34;;;;;;;;;;;;;;;;;;4966779;28;19930;-78
2024/03/22 07:04:01;;;;;;;;;;;;;;;;;;4971788;28;19977;-81
2024/03/22 07:06:27;;;;;;;;;;;;;;;;;;4970369;28;20011;-79
2024/03/22 07:08:54;;;;;;;;;;;;;;;;;;4968644;28;19930;-79
2024/03/22 07:11:20;;;;;;;;;;;;;;;;;;4961010;28;20598;-79
2024/03/22 07:13:47;;;;;;;;;;;;;;;;;;4964090;28;20024;-82
2024/03/22 07:16:13;;;;;;;;;;;;;;;;;;4958142;28;20393;-75
2024/03/22 07:18:40;;;;;;;;;;;;;;;;;;4962605;28;20028;-78
2024/03/22 07:21:07;;;;;;;;;;;;;;;;;;4963769;28;20356;-78
2024/03/22 07:23:34;;;;;;;;;;;;;;;;;;4969610;28;19936;-78
2024/03/22 07:26:00;;;;;;;;;;;;;;;;;;4957304;28;20382;-78
2024/03/22 07:28:27;;;;;;;;;;;;;;;;;;4978591;28;19952;-78
2024/03/22 07:30:55;;;;;;;;;;;;;;;;;;4956186;28;19934;-77
2024/03/22 07:33:22;;;;;;;;;;;;;;;;;;4964912;28;19941;-75
2024/03/22 07:35:48;;;;;;;;;;;;;;;;;;5003537;28;19985;-74
2024/03/22 07:38:15;;;;;;;;;;;;;;;;;;4966737;28;19930;-75
2024/03/22 07:40:41;;;;;;;;;;;;;;;;;;4961922;28;20015;-70
2024/03/22 07:43:08;;;;;;;;;;;;;;;;;;4962548;28;19937;-70
2024/03/22 07:45:34;;;;;;;;;;;;;;;;;;4959943;28;20386;-70
2024/03/22 07:48:01;;;;;;;;;;;;;;;;;;4958110;28;19935;-70
2024/03/22 07:50:27;;;;;;;;;;;;;;;;;;4954712;28;19930;-72
2024/03/22 07:52:54;;;;;;;;;;;;;;;;;;4957457;28;20365;-71
2024/03/22 07:55:20;;;;;;;;;;;;;;;;;;4954188;28;19977;-70
2024/03/22 07:57:47;;;;;;;;;;;;;;;;;;4960278;28;19991;-70
2024/03/22 08:00:13;;;;;;;;;;;;;;;;;;4955500;28;20345;-69
2024/03/22 08:02:40;;;;;;;;;;;;;;;;;;4962558;28;19934;-70
2024/03/22 08:05:06;;;;;;;;;;;;;;;;;;4963426;28;20335;-68
2024/03/22 08:07:33;;;;;;;;;;;;;;;;;;4965575;28;19934;-69
2024/03/22 08:10:01;;;;;;;;;;;;;;;;;;4964161;28;19933;-69
2024/03/22 08:12:28;;;;;;;;;;;;;;;;;;4960108;28;19931;-70
2024/03/22 08:14:55;;;;;;;;;;;;;;;;;;4958479;28;20047;-69
2024/03/22 08:17:22;;;;;;;;;;;;;;;;;;4963200;28;20344;-69
2024/03/22 08:19:48;;;;;;;;;;;;;;;;;;4963141;28;20041;-69
2024/03/22 08:22:15;;;;;;;;;;;;;;;;;;4958574;28;20025;-69
2024/03/22 08:24:41;;;;;;;;;;;;;;;;;;4958951;28;20031;-69
2024/03/22 08:27:08;;;;;;;;;;;;;;;;;;4960877;28;20004;-70
2024/03/22 08:29:34;;;;;;;;;;;;;;;;;;4964094;28;19974;-68
2024/03/22 08:32:04;;;;;;;;;;;;;;;;;;4954233;28;20309;-68
2024/03/22 08:34:30;;;;;;;;;;;;;;;;;;4962179;28;19937;-68
2024/03/22 08:36:57;;;;;;;;;;;;;;;;;;4958918;28;19930;-68
2024/03/22 08:39:24;;;;;;;;;;;;;;;;;;4962180;28;20011;-68
2024/03/22 08:41:51;;;;;;;;;;;;;;;;;;4965798;28;19961;-70
2024/03/22 08:44:17;;;;;;;;;;;;;;;;;;4962436;28;19966;-70
2024/03/22 08:46:44;;;;;;;;;;;;;;;;;;4960153;28;19937;-70
2024/03/22 08:49:11;;;;;;;;;;;;;;;;;;4963235;28;19937;-69
2024/03/22 08:51:38;;;;;;;;;;;;;;;;;;4958526;28;20083;-69
2024/03/22 08:54:05;;;;;;;;;;;;;;;;;;4966266;28;20038;-69
2024/03/22 08:56:32;;;;;;;;;;;;;;;;;;4963256;28;19969;-69
2024/03/22 08:58:58;;;;;;;;;;;;;;;;;;4962208;28;19930;-75
2024/03/22 09:01:25;;;;;;;;;;;;;;;;;;4964316;28;20365;-76
2024/03/22 09:03:51;;;;;;;;;;;;;;;;;;4966005;28;20045;-74
2024/03/22 09:06:19;;;;;;;;;;;;;;;;;;4962671;28;19936;-75
2024/03/22 09:08:45;;;;;;;;;;;;;;;;;;4984227;28;20422;-75
2024/03/22 09:11:12;;;;;;;;;;;;;;;;;;5000023;28;19984;-74
2024/03/22 09:13:38;;;;;;;;;;;;;;;;;;4960568;28;19942;-75
2024/03/22 09:16:05;;;;;;;;;;;;;;;;;;4966248;28;19934;-76
2024/03/22 09:18:31;;;;;;;;;;;;;;;;;;4958277;28;19978;-76
2024/03/22 09:20:58;;;;;;;;;;;;;;;;;;4967896;28;19936;-76
2024/03/22 09:23:24;;;;;;;;;;;;;;;;;;4964998;28;19957;-71
2024/03/22 09:25:51;;;;;;;;;;;;;;;;;;4961691;28;20067;-72
2024/03/22 09:28:17;;;;;;;;;;;;;;;;;;4966004;28;19982;-72
2024/03/22 09:30:44;;;;;;;;;;;;;;;;;;4961545;28;20021;-72
2024/03/22 09:33:11;;;;;;;;;;;;;;;;;;4967381;28;20122;-73
2024/03/22 09:35:38;;;;;;;;;;;;;;;;;;4955544;28;19930;-76
2024/03/22 09:38:04;;;;;;;;;;;;;;;;;;4955606;28;19977;-75
2024/03/22 09:40:31;;;;;;;;;;;;;;;;;;4958178;28;20003;-75
2024/03/22 09:42:57;;;;;;;;;;;;;;;;;;4960777;28;19983;-75
2024/03/22 09:45:24;;;;;;;;;;;;;;;;;;4963230;28;19930;-75
2024/03/22 09:47:50;;;;;;;;;;;;;;;;;;4958452;28;19973;-76
2024/03/22 09:50:17;;;;;;;;;;;;;;;;;;4963020;28;20476;-73
2024/03/22 09:52:43;;;;;;;;;;;;;;;;;;4948814;28;19973;-73
2024/03/22 09:55:10;;;;;;;;;;;;;;;;;;4966445;28;19930;-75
2024/03/22 09:57:36;;;;;;;;;;;;;;;;;;4955941;28;19966;-74
2024/03/22 10:00:03;;;;;;;;;;;;;;;;;;4960868;28;20406;-74
2024/03/22 10:02:30;;;;;;;;;;;;;;;;;;4962740;28;19983;-74
2024/03/22 10:04:57;;;;;;;;;;;;;;;;;;4951509;28;19934;-74
2024/03/22 10:07:23;;;;;;;;;;;;;;;;;;4963313;28;20030;-76
2024/03/22 10:09:50;;;;;;;;;;;;;;;;;;4958815;28;20412;-69
2024/03/22 10:12:16;;;;;;;;;;;;;;;;;;4959950;28;19931;-70
2024/03/22 10:14:43;;;;;;;;;;;;;;;;;;4950122;28;19975;-72
2024/03/22 10:17:09;;;;;;;;;;;;;;;;;;4953042;28;20019;-74
2024/03/22 10:19:36;;;;;;;;;;;;;;;;;;4962144;28;19984;-75
2024/03/22 10:22:02;;;;;;;;;;;;;;;;;;4968117;28;19930;-73
2024/03/22 10:24:29;;;;;;;;;;;;;;;;;;4959204;28;19938;-78
2024/03/22 10:26:56;;;;;;;;;;;;;;;;;;4958771;28;20478;-75
2024/03/22 10:29:23;;;;;;;;;;;;;;;;;;4961095;28;19952;-74
2024/03/22 10:31:49;;;;;;;;;;;;;;;;;;4960861;28;20390;-74
2024/03/22 10:34:16;;;;;;;;;;;;;;;;;;4963089;28;19991;-74
2024/03/22 10:36:42;;;;;;;;;;;;;;;;;;4958166;28;19977;-71
2024/03/22 10:39:10;;;;;;;;;;;;;;;;;;4956841;28;20074;-74
2024/03/22 10:41:36;;;;;;;;;;;;;;;;;;4961957;28;20036;-73
2024/03/22 10:44:04;;;;;;;;;;;;;;;;;;4956877;28;20021;-77
2024/03/22 10:46:30;;;;;;;;;;;;;;;;;;4964561;28;19930;-74
2024/03/22 10:48:57;;;;;;;;;;;;;;;;;;4960935;28;19934;-76
2024/03/22 10:51:23;;;;;;;;;;;;;;;;;;4965472;28;20411;-76
2024/03/22 10:53:50;;;;;;;;;;;;;;;;;;4952290;28;20310;-75
2024/03/22 10:56:17;;;;;;;;;;;;;;;;;;4964158;28;19985;-76
2024/03/22 10:58:45;;;;;;;;;;;;;;;;;;4962993;28;19930;-76
2024/03/22 11:01:11;;;;;;;;;;;;;;;;;;4955928;28;19960;-76
2024/03/22 11:03:39;;;;;;;;;;;;;;;;;;4959205;28;19930;-77
2024/03/22 11:06:05;;;;;;;;;;;;;;;;;;4960840;28;19934;-77
2024/03/22 11:08:32;;;;;;;;;;;;;;;;;;4968208;28;19972;-80
2024/03/22 11:10:58;;;;;;;;;;;;;;;;;;4965770;28;20444;-76
2024/03/22 11:13:25;;;;;;;;;;;;;;;;;;4963786;28;20021;-78
2024/03/22 11:15:51;;;;;;;;;;;;;;;;;;4967403;28;19961;-78
2024/03/22 11:18:18;;;;;;;;;;;;;;;;;;4961977;28;19938;-77
2024/03/22 11:20:44;;;;;;;;;;;;;;;;;;4962150;28;20031;-76
2024/03/22 11:23:11;;;;;;;;;;;;;;;;;;4963649;28;19941;-75
2024/03/22 11:25:38;;;;;;;;;;;;;;;;;;4955369;28;19934;-77
2024/03/22 11:28:05;;;;;;;;;;;;;;;;;;4956659;28;19978;-75
2024/03/22 11:30:31;;;;;;;;;;;;;;;;;;4962789;28;19930;-77
2024/03/22 11:32:58;;;;;;;;;;;;;;;;;;4965263;28;20008;-79
2024/03/22 11:35:24;;;;;;;;;;;;;;;;;;4964434;28;19930;-76
2024/03/22 11:37:51;;;;;;;;;;;;;;;;;;4964808;28;19937;-78
2024/03/22 11:40:17;;;;;;;;;;;;;;;;;;4958070;28;19930;-77
2024/03/22 11:42:44;;;;;;;;;;;;;;;;;;4965173;28;20009;-76
2024/03/22 11:45:10;;;;;;;;;;;;;;;;;;4960364;28;20393;-77
2024/03/22 11:47:37;;;;;;;;;;;;;;;;;;4964200;28;19956;-77
2024/03/22 11:50:03;;;;;;;;;;;;;;;;;;4964930;28;20124;-76
2024/03/22 11:52:30;;;;;;;;;;;;;;;;;;4965860;28;20017;-76
2024/03/22 11:54:56;;;;;;;;;;;;;;;;;;4964779;28;20018;-77
2024/03/22 11:57:24;;;;;;;;;;;;;;;;;;4960098;28;20049;-66
2024/03/22 11:59:50;;;;;;;;;;;;;;;;;;4963794;28;19981;-68
2024/03/22 12:02:17;;;;;;;;;;;;;;;;;;4959123;28;19996;-68
2024/03/22 12:04:43;;;;;;;;;;;;;;;;;;4973120;28;19976;-68
2024/03/22 12:07:11;;;;;;;;;;;;;;;;;;4964706;28;19945;-68
2024/03/22 12:09:37;;;;;;;;;;;;;;;;;;4956019;28;19934;-69
2024/03/22 12:12:04;;;;;;;;;;;;;;;;;;4962217;28;19934;-68
2024/03/22 12:14:31;;;;;;;;;;;;;;;;;;4964361;28;19980;-76
2024/03/22 12:16:58;;;;;;;;;;;;;;;;;;4966359;28;19930;-76
2024/03/22 12:19:25;;;;;;;;;;;;;;;;;;4963115;28;19937;-75
2024/03/22 12:21:51;;;;;;;;;;;;;;;;;;4963844;28;20283;-78
2024/03/22 12:24:19;;;;;;;;;;;;;;;;;;4962108;28;20007;-74
2024/03/22 12:26:45;;;;;;;;;;;;;;;;;;4963160;28;19988;-75
2024/03/22 12:29:12;;;;;;;;;;;;;;;;;;4961466;28;19934;-76
2024/03/22 12:31:38;;;;;;;;;;;;;;;;;;4957747;28;19953;-76
2024/03/22 12:34:05;;;;;;;;;;;;;;;;;;4963169;28;19930;-76
2024/03/22 12:36:31;;;;;;;;;;;;;;;;;;4966698;28;19934;-77
2024/03/22 12:38:59;;;;;;;;;;;;;;;;;;4953630;28;20335;-77
2024/03/22 12:41:25;;;;;;;;;;;;;;;;;;4962858;28;19966;-75
2024/03/22 12:43:52;;;;;;;;;;;;;;;;;;4964220;28;19930;-76
2024/03/22 12:46:18;;;;;;;;;;;;;;;;;;4967814;28;19981;-76
2024/03/22 12:48:45;;;;;;;;;;;;;;;;;;4964524;28;19934;-77
2024/03/22 12:51:11;;;;;;;;;;;;;;;;;;4965367;28;19938;-77
2024/03/22 12:53:38;;;;;;;;;;;;;;;;;;4966225;28;19930;-79
2024/03/22 12:56:04;;;;;;;;;;;;;;;;;;4965263;28;20294;-79
2024/03/22 12:58:31;;;;;;;;;;;;;;;;;;4966365;28;20416;-78
2024/03/22 13:00:57;;;;;;;;;;;;;;;;;;4966159;28;19980;-76
2024/03/22 13:03:25;;;;;;;;;;;;;;;;;;4965831;28;19980;-78
2024/03/22 13:05:51;;;;;;;;;;;;;;;;;;4975256;28;19942;-79
2024/03/22 13:08:19;;;;;;;;;;;;;;;;;;4961938;28;19991;-77
2024/03/22 13:10:45;;;;;;;;;;;;;;;;;;4963443;28;20303;-78
2024/03/22 13:13:15;;;;;;;;;;;;;;;;;;4963804;28;19956;-77
2024/03/22 13:15:41;;;;;;;;;;;;;;;;;;4962421;28;19941;-75
2024/03/22 13:18:09;;;;;;;;;;;;;;;;;;4959557;28;19934;-75
2024/03/22 13:20:35;;;;;;;;;;;;;;;;;;4958774;28;19930;-76
2024/03/22 13:23:02;;;;;;;;;;;;;;;;;;4962352;28;19930;-75
2024/03/22 13:25:28;;;;;;;;;;;;;;;;;;4962217;28;20833;-75
2024/03/22 13:27:55;;;;;;;;;;;;;;;;;;4956857;28;20002;-75
2024/03/22 13:30:21;;;;;;;;;;;;;;;;;;4955767;28;20009;-72
2024/03/22 13:32:48;;;;;;;;;;;;;;;;;;4956697;28;19934;-74
2024/03/22 13:35:14;;;;;;;;;;;;;;;;;;4963721;28;20013;-73
2024/03/22 13:37:41;;;;;;;;;;;;;;;;;;4973387;28;19942;-72
2024/03/22 13:40:07;;;;;;;;;;;;;;;;;;4966481;28;19960;-72
2024/03/22 13:42:34;;;;;;;;;;;;;;;;;;4962098;28;19931;-73
2024/03/22 13:45:00;;;;;;;;;;;;;;;;;;4963029;28;19938;-73
2024/03/22 13:47:27;;;;;;;;;;;;;;;;;;4961747;28;19966;-72
2024/03/22 13:49:53;;;;;;;;;;;;;;;;;;4961408;28;19930;-73
2024/03/22 13:52:21;;;;;;;;;;;;;;;;;;4957713;28;19930;-73
2024/03/22 13:54:47;;;;;;;;;;;;;;;;;;4965795;28;19941;-73
2024/03/22 13:57:14;;;;;;;;;;;;;;;;;;4961699;28;19930;-73
2024/03/22 13:59:40;;;;;;;;;;;;;;;;;;4970657;28;19934;-72
2024/03/22 14:02:08;;;;;;;;;;;;;;;;;;4960115;28;20317;-72
2024/03/22 14:04:34;;;;;;;;;;;;;;;;;;4975929;28;19982;-74
2024/03/22 14:07:04;;;;;;;;;;;;;;;;;;4958666;28;19930;-73
2024/03/22 14:09:30;;;;;;;;;;;;;;;;;;4979309;28;20017;-71
2024/03/22 14:11:58;;;;;;;;;;;;;;;;;;4964099;28;19981;-74
2024/03/22 14:14:24;;;;;;;;;;;;;;;;;;4958582;28;20377;-72
2024/03/22 14:16:51;;;;;;;;;;;;;;;;;;4958211;28;19934;-72
2024/03/22 14:19:19;;;;;;;;;;;;;;;;;;4973459;28;19930;-72
2024/03/22 14:21:46;;;;;;;;;;;;;;;;;;4967991;28;20399;-72
2024/03/22 14:24:12;;;;;;;;;;;;;;;;;;4960949;28;19938;-69
2024/03/22 14:26:42;;;;;;;;;;;;;;;;;;4959509;28;19931;-70
2024/03/22 14:29:09;;;;;;;;;;;;;;;;;;4958042;28;20007;-74
2024/03/22 14:31:36;;;;;;;;;;;;;;;;;;4959049;28;19949;-73
2024/03/22 14:34:02;;;;;;;;;;;;;;;;;;4961737;28;19930;-73
2024/03/22 14:36:29;;;;;;;;;;;;;;;;;;4954568;28;19930;-73
2024/03/22 14:38:55;;;;;;;;;;;;;;;;;;4963139;28;19942;-73
2024/03/22 14:41:22;;;;;;;;;;;;;;;;;;4955723;28;19935;-72
2024/03/22 14:43:48;;;;;;;;;;;;;;;;;;4959253;28;20447;-73
2024/03/22 14:46:15;;;;;;;;;;;;;;;;;;4960510;28;19989;-73
2024/03/22 14:48:42;;;;;;;;;;;;;;;;;;4974997;28;19967;-72
2024/03/22 14:51:09;;;;;;;;;;;;;;;;;;4991715;28;19935;-71
2024/03/22 14:53:35;;;;;;;;;;;;;;;;;;4962215;28;19973;-72
2024/03/22 14:56:04;;;;;;;;;;;;;;;;;;4967939;28;20289;-73
2024/03/22 14:58:30;;;;;;;;;;;;;;;;;;4961567;28;19942;-72
2024/03/22 15:00:57;;;;;;;;;;;;;;;;;;4962738;28;19931;-73
2024/03/22 15:03:23;;;;;;;;;;;;;;;;;;4952674;28;20002;-72
2024/03/22 15:05:50;;;;;;;;;;;;;;;;;;4968916;28;20347;-72
2024/03/22 15:08:16;;;;;;;;;;;;;;;;;;4959968;28;19966;-72
2024/03/22 15:10:43;;;;;;;;;;;;;;;;;;4988179;28;19926;-73
2024/03/22 15:13:10;;;;;;;;;;;;;;;;;;4957735;28;19969;-72
2024/03/22 15:15:38;;;;;;;;;;;;;;;;;;4978485;28;19930;-72
2024/03/22 15:18:05;;;;;;;;;;;;;;;;;;4960534;28;20477;-71
2024/03/22 15:20:32;;;;;;;;;;;;;;;;;;4962378;28;19930;-72
2024/03/22 15:22:58;;;;;;;;;;;;;;;;;;4959794;28;19962;-73
2024/03/22 15:25:25;;;;;;;;;;;;;;;;;;4973308;28;19936;-74
2024/03/22 15:27:51;;;;;;;;;;;;;;;;;;4966564;28;20347;-75
2024/03/22 15:30:19;;;;;;;;;;;;;;;;;;4967303;28;20680;-72
2024/03/22 15:32:46;;;;;;;;;;;;;;;;;;4961234;28;19949;-74
2024/03/22 15:35:12;;;;;;;;;;;;;;;;;;4962979;28;19937;-74
2024/03/22 15:37:39;;;;;;;;;;;;;;;;;;4964400;28;19931;-74
2024/03/22 15:40:06;;;;;;;;;;;;;;;;;;4970561;28;19935;-73
2024/03/22 15:42:33;;;;;;;;;;;;;;;;;;4965014;28;19930;-73
2024/03/22 15:45:04;;;;;;;;;;;;;;;;;;4971395;28;20009;-74
2024/03/22 15:47:32;;;;;;;;;;;;;;;;;;4959706;28;19950;-74
2024/03/22 15:49:58;;;;;;;;;;;;;;;;;;4969920;28;19940;-74
2024/03/22 15:52:26;;;;;;;;;;;;;;;;;;4963148;28;19934;-71
2024/03/22 15:54:53;;;;;;;;;;;;;;;;;;4961946;28;19981;-74
2024/03/22 15:57:20;;;;;;;;;;;;;;;;;;4960545;28;20349;-72
2024/03/22 15:59:46;;;;;;;;;;;;;;;;;;4962179;28;19969;-73
2024/03/22 16:02:14;;;;;;;;;;;;;;;;;;4979002;28;20053;-73
2024/03/22 16:04:45;;;;;;;;;;;;;;;;;;4965419;28;19961;-75
2024/03/22 16:07:13;;;;;;;;;;;;;;;;;;4961034;28;19953;-75
2024/03/22 16:09:39;;;;;;;;;;;;;;;;;;4961995;28;19930;-75
2024/03/22 16:12:06;;;;;;;;;;;;;;;;;;4983126;28;20316;-75
2024/03/22 16:14:32;;;;;;;;;;;;;;;;;;4968799;28;20009;-74
2024/03/22 16:16:59;;;;;;;;;;;;;;;;;;4990344;28;19934;-75
2024/03/22 16:19:25;;;;;;;;;;;;;;;;;;4961551;28;19977;-75
2024/03/22 16:21:53;;;;;;;;;;;;;;;;;;4967675;28;19930;-74
2024/03/22 16:24:19;;;;;;;;;;;;;;;;;;4956328;28;20367;-74
2024/03/22 16:26:46;;;;;;;;;;;;;;;;;;4967280;28;19930;-73
2024/03/22 16:29:12;;;;;;;;;;;;;;;;;;4957749;28;19974;-74
2024/03/22 16:31:40;;;;;;;;;;;;;;;;;;4970751;28;19976;-74
2024/03/22 16:34:06;;;;;;;;;;;;;;;;;;4960335;28;19940;-72
2024/03/22 16:36:33;;;;;;;;;;;;;;;;;;4962273;28;20443;-74
2024/03/22 16:38:59;;;;;;;;;;;;;;;;;;4957567;28;19977;-74
2024/03/22 16:41:27;;;;;;;;;;;;;;;;;;4970872;28;20376;-74